Time;durP1;ratioP1;P1;durP2;ratioP2;P2;SDS_P1;SDS_P2;PMS_P1;PMS_P2;Temp;Humidity;BMP_temperature;BMP_pressure;BME280_temperature;BME280_humidity;BME280_pressure;Samples;Min_cycle;Max_cycle;Signal;HPM_P1;HPM_P2
2022/09/07 00:01:06;;;;;;;13.23;12.00;;;17.80;96.20;;;;;;4954906;28;20465;-74
2022/09/07 00:03:36;;;;;;;10.97;10.00;;;17.80;96.30;;;;;;4956307;28;20466;-74
2022/09/07 00:06:10;;;;;;;12.37;11.27;;;17.80;96.40;;;;;;4958760;28;20442;-74
2022/09/07 00:08:39;;;;;;;12.03;11.03;;;17.70;96.40;;;;;;4959307;28;20409;-73
2022/09/07 00:11:11;;;;;;;12.20;11.20;;;17.70;96.40;;;;;;4957705;28;20852;-74
2022/09/07 00:13:41;;;;;;;11.97;10.93;;;17.70;96.50;;;;;;4959023;28;20510;-74
2022/09/07 00:16:11;;;;;;;11.63;10.73;;;17.70;96.60;;;;;;4958886;28;20799;-74
2022/09/07 00:18:41;;;;;;;12.97;11.83;;;17.70;96.60;;;;;;4958899;28;20438;-73
2022/09/07 00:21:15;;;;;;;13.00;11.80;;;17.70;96.70;;;;;;4958696;28;21040;-74
2022/09/07 00:23:44;;;;;;;11.67;10.57;;;17.70;96.70;;;;;;4958658;28;20539;-73
2022/09/07 00:26:15;;;;;;;12.37;11.37;;;17.70;96.90;;;;;;4957317;29;20451;-73
2022/09/07 00:28:44;;;;;;;12.17;10.97;;;17.70;96.90;;;;;;4958915;28;20435;-73
2022/09/07 00:31:13;;;;;;;12.10;11.13;;;17.70;96.90;;;;;;4957146;28;20476;-74
2022/09/07 00:33:43;;;;;;;12.10;11.10;;;17.70;96.90;;;;;;4958223;28;20956;-74
2022/09/07 00:36:12;;;;;;;12.47;11.47;;;17.70;97.00;;;;;;4958524;28;21020;-73
2022/09/07 00:38:40;;;;;;;13.10;12.00;;;17.70;97.00;;;;;;4958251;28;20497;-73
2022/09/07 00:41:09;;;;;;;11.70;10.80;;;17.70;97.00;;;;;;4958033;28;20454;-73
2022/09/07 00:43:40;;;;;;;12.27;11.03;;;17.70;97.10;;;;;;4956745;29;20553;-73
2022/09/07 00:46:14;;;;;;;12.70;11.53;;;17.70;97.10;;;;;;4957197;28;20421;-73
2022/09/07 00:48:48;;;;;;;12.87;11.73;;;17.70;97.20;;;;;;4957924;28;20461;-74
2022/09/07 00:51:21;;;;;;;11.90;11.00;;;17.70;97.30;;;;;;4958224;28;20513;-74
2022/09/07 00:53:54;;;;;;;12.17;11.00;;;17.60;97.20;;;;;;4958244;28;20933;-74
2022/09/07 00:56:26;;;;;;;11.90;10.90;;;17.60;97.30;;;;;;4957045;29;20442;-73
2022/09/07 00:58:54;;;;;;;12.83;11.63;;;17.60;97.30;;;;;;4958407;28;20433;-73
2022/09/07 01:01:23;;;;;;;11.77;10.77;;;17.60;97.30;;;;;;4957722;28;20466;-73
2022/09/07 01:03:55;;;;;;;13.17;12.07;;;17.60;97.40;;;;;;4957912;28;20478;-74
2022/09/07 01:06:26;;;;;;;12.10;10.90;;;17.60;97.70;;;;;;4957930;28;20436;-74
2022/09/07 01:08:59;;;;;;;11.93;11.03;;;17.60;97.50;;;;;;4956417;28;21013;-73
2022/09/07 01:11:27;;;;;;;11.37;10.37;;;17.60;97.60;;;;;;4956307;28;20544;-73
2022/09/07 01:13:56;;;;;;;12.90;11.77;;;17.60;97.60;;;;;;4956993;28;20987;-73
2022/09/07 01:16:39;;;;;;;13.77;12.70;;;17.50;97.60;;;;;;4956483;29;20434;-73
2022/09/07 01:19:33;;;;;;;12.60;11.60;;;17.50;97.70;;;;;;4956456;29;20524;-73
2022/09/07 01:22:17;;;;;;;12.10;11.10;;;17.50;97.80;;;;;;4957633;28;20423;-73
2022/09/07 01:25:01;;;;;;;11.93;10.93;;;17.50;97.80;;;;;;4957955;28;20397;-74
2022/09/07 01:28:05;;;;;;;13.20;12.10;;;17.50;97.90;;;;;;4956085;28;20508;-73
2022/09/07 01:30:37;;;;;;;13.13;11.87;;;17.50;98.00;;;;;;4956277;28;20813;-74
2022/09/07 01:33:21;;;;;;;13.40;12.30;;;17.50;98.00;;;;;;4957796;28;20480;-74
2022/09/07 01:36:00;;;;;;;12.93;11.93;;;17.50;98.00;;;;;;4957510;28;20502;-73
2022/09/07 01:38:34;;;;;;;12.30;11.30;;;17.40;98.10;;;;;;4957159;28;20538;-74
2022/09/07 01:41:05;;;;;;;13.10;12.00;;;17.40;98.10;;;;;;4957570;28;20458;-73
2022/09/07 01:43:41;;;;;;;13.70;12.33;;;17.50;98.20;;;;;;4957071;28;20467;-73
2022/09/07 01:46:16;;;;;;;13.20;12.00;;;17.40;98.20;;;;;;4957574;28;20477;-73
2022/09/07 01:48:48;;;;;;;12.67;11.77;;;17.40;98.30;;;;;;4957058;28;20458;-73
2022/09/07 01:51:18;;;;;;;13.63;12.50;;;17.40;98.30;;;;;;4956952;28;20490;-73
2022/09/07 01:53:53;;;;;;;12.97;12.00;;;17.40;98.30;;;;;;4957076;28;20955;-73
2022/09/07 01:56:27;;;;;;;13.27;12.20;;;17.40;98.40;;;;;;4957355;28;20422;-73
2022/09/07 01:58:59;;;;;;;12.90;11.90;;;17.40;98.50;;;;;;4955565;28;20447;-74
2022/09/07 02:01:31;;;;;;;12.30;11.40;;;17.40;98.50;;;;;;4956616;28;21015;-73
2022/09/07 02:04:03;;;;;;;13.03;11.93;;;17.40;98.60;;;;;;4955378;29;20466;-73
2022/09/07 02:06:37;;;;;;;13.37;12.23;;;17.40;98.60;;;;;;4955383;29;20960;-73
2022/09/07 02:09:09;;;;;;;13.23;12.23;;;17.40;98.70;;;;;;4957049;28;20427;-74
2022/09/07 02:11:41;;;;;;;12.13;10.93;;;17.40;98.70;;;;;;4956970;28;20870;-73
2022/09/07 02:14:15;;;;;;;12.80;11.80;;;17.40;98.70;;;;;;4955343;29;20555;-73
2022/09/07 02:16:50;;;;;;;13.07;12.03;;;17.40;98.80;;;;;;4956476;28;20526;-73
2022/09/07 02:19:20;;;;;;;13.17;12.07;;;17.40;98.80;;;;;;4955202;28;20872;-74
2022/09/07 02:21:56;;;;;;;15.43;14.03;;;17.40;98.80;;;;;;4956582;28;20431;-73
2022/09/07 02:24:28;;;;;;;13.57;12.50;;;17.40;98.90;;;;;;4957029;28;20433;-73
2022/09/07 02:26:59;;;;;;;13.50;12.30;;;17.40;99.20;;;;;;4956145;28;20393;-73
2022/09/07 02:29:28;;;;;;;14.90;13.63;;;17.40;99.00;;;;;;4956443;28;20452;-74
2022/09/07 02:31:58;;;;;;;13.20;12.10;;;17.40;99.00;;;;;;4956359;28;20836;-74
2022/09/07 02:34:26;;;;;;;13.23;12.10;;;17.40;99.10;;;;;;4956178;28;20467;-74
2022/09/07 02:36:55;;;;;;;13.23;12.20;;;17.40;99.10;;;;;;4956163;28;20420;-74
2022/09/07 02:39:23;;;;;;;13.13;12.03;;;17.40;99.50;;;;;;4956363;28;20439;-73
2022/09/07 02:41:51;;;;;;;12.63;11.73;;;17.40;99.20;;;;;;4956331;28;20523;-74
2022/09/07 02:44:23;;;;;;;13.10;12.13;;;17.40;99.30;;;;;;4954646;29;20987;-73
2022/09/07 02:47:20;;;;;;;13.17;11.73;;;17.40;99.30;;;;;;4954873;29;20439;-74
2022/09/07 02:50:20;;;;;;;12.80;11.80;;;17.40;99.40;;;;;;4954504;28;20994;-74
2022/09/07 02:53:04;;;;;;;13.83;12.63;;;17.40;99.50;;;;;;4954634;29;20542;-74
2022/09/07 02:55:40;;;;;;;13.10;11.97;;;17.40;99.50;;;;;;4954744;29;20498;-73
2022/09/07 02:58:19;;;;;;;12.60;11.50;;;17.40;99.60;;;;;;4955841;28;20452;-74
2022/09/07 03:00:52;;;;;;;13.57;12.47;;;17.40;99.70;;;;;;4956253;28;20541;-73
2022/09/07 03:03:26;;;;;;;12.17;11.17;;;17.40;99.70;;;;;;4955649;28;20454;-74
2022/09/07 03:05:58;;;;;;;13.47;12.33;;;17.50;99.80;;;;;;4955870;28;20412;-73
2022/09/07 03:08:31;;;;;;;13.80;12.70;;;17.50;99.80;;;;;;4955885;28;20452;-73
2022/09/07 03:11:01;;;;;;;13.57;12.30;;;17.50;99.90;;;;;;4954226;28;20983;-74
2022/09/07 03:13:30;;;;;;;13.40;12.40;;;17.50;99.90;;;;;;4955688;28;20950;-74
2022/09/07 03:15:58;;;;;;;13.23;12.10;;;17.50;99.90;;;;;;4956019;28;20838;-74
2022/09/07 03:18:28;;;;;;;13.53;12.43;;;17.50;99.90;;;;;;4956141;28;20758;-74
2022/09/07 03:20:56;;;;;;;14.73;13.60;;;17.50;99.90;;;;;;4955436;28;20462;-74
2022/09/07 03:23:24;;;;;;;14.30;13.10;;;17.50;99.90;;;;;;4955228;28;20565;-74
2022/09/07 03:25:53;;;;;;;13.03;11.93;;;17.50;99.90;;;;;;4955319;28;20542;-74
2022/09/07 03:28:21;;;;;;;12.70;11.80;;;17.50;99.90;;;;;;4955310;29;20442;-74
2022/09/07 03:30:49;;;;;;;14.07;12.97;;;17.50;99.90;;;;;;4955274;28;20429;-74
2022/09/07 03:33:17;;;;;;;13.93;12.80;;;17.50;99.90;;;;;;4954149;29;20454;-74
2022/09/07 03:35:58;;;;;;;14.43;13.00;;;17.50;99.90;;;;;;4954703;29;20413;-73
2022/09/07 03:38:26;;;;;;;13.43;12.40;;;17.50;99.90;;;;;;4954990;28;20841;-74
2022/09/07 03:40:59;;;;;;;14.27;13.00;;;17.50;99.90;;;;;;4955138;28;21048;-74
2022/09/07 03:43:28;;;;;;;14.83;13.73;;;17.50;99.90;;;;;;4953844;28;20479;-74
2022/09/07 03:46:00;;;;;;;13.80;12.63;;;17.50;99.90;;;;;;4955669;28;20476;-74
2022/09/07 03:48:30;;;;;;;13.63;12.53;;;17.50;99.90;;;;;;4954973;28;20457;-74
2022/09/07 03:51:02;;;;;;;14.80;13.50;;;17.50;99.90;;;;;;4955117;28;20470;-74
2022/09/07 03:53:32;;;;;;;14.30;13.00;;;17.50;99.90;;;;;;4953813;28;20509;-73
2022/09/07 03:56:01;;;;;;;14.17;12.97;;;17.50;99.90;;;;;;4953758;28;20987;-73
2022/09/07 03:58:30;;;;;;;13.83;12.70;;;17.50;99.90;;;;;;4954984;28;20522;-74
2022/09/07 04:01:00;;;;;;;13.77;12.67;;;17.50;99.90;;;;;;4955140;28;20550;-74
2022/09/07 04:03:29;;;;;;;14.33;13.33;;;17.50;99.90;;;;;;4955107;28;20451;-73
2022/09/07 04:05:59;;;;;;;14.00;12.80;;;17.50;99.90;;;;;;4954952;28;20413;-74
2022/09/07 04:08:29;;;;;;;14.90;13.60;;;17.50;99.90;;;;;;4955722;28;20517;-74
2022/09/07 04:10:57;;;;;;;15.03;13.80;;;17.50;99.90;;;;;;4953764;28;20500;-74
2022/09/07 04:13:26;;;;;;;13.90;12.80;;;17.50;99.90;;;;;;4955413;28;20441;-74
2022/09/07 04:15:54;;;;;;;14.33;13.13;;;17.50;99.90;;;;;;4955106;28;20524;-74
2022/09/07 04:18:23;;;;;;;14.37;13.20;;;17.60;99.90;;;;;;4955686;28;20589;-74
2022/09/07 04:20:51;;;;;;;15.63;14.33;;;17.50;99.90;;;;;;4954854;28;20454;-74
2022/09/07 04:23:21;;;;;;;15.97;14.63;;;17.50;99.90;;;;;;4953532;28;20421;-74
2022/09/07 04:25:49;;;;;;;16.20;14.90;;;17.50;99.90;;;;;;4953434;29;20473;-74
2022/09/07 04:28:19;;;;;;;15.50;14.30;;;17.50;99.90;;;;;;4954973;28;20413;-74
2022/09/07 04:30:47;;;;;;;14.93;13.73;;;17.50;99.90;;;;;;4953371;28;20478;-74
2022/09/07 04:33:15;;;;;;;13.37;12.37;;;17.50;99.90;;;;;;4953413;29;20476;-74
2022/09/07 04:35:43;;;;;;;15.50;14.40;;;17.50;99.90;;;;;;4953611;28;21012;-74
2022/09/07 04:38:15;;;;;;;16.37;14.97;;;17.50;99.90;;;;;;4954614;28;20959;-74
2022/09/07 04:40:44;;;;;;;14.83;13.50;;;17.50;99.90;;;;;;4954557;28;20498;-74
2022/09/07 04:43:12;;;;;;;16.27;14.97;;;17.50;99.90;;;;;;4954632;28;20413;-74
2022/09/07 04:45:40;;;;;;;14.33;13.23;;;17.50;99.90;;;;;;4954863;28;20890;-74
2022/09/07 04:48:09;;;;;;;14.67;13.50;;;17.50;99.90;;;;;;4955053;28;20425;-74
2022/09/07 04:50:37;;;;;;;14.27;13.17;;;17.50;99.90;;;;;;4957102;28;20565;-73
2022/09/07 04:53:05;;;;;;;15.93;14.63;;;17.50;99.90;;;;;;4958015;28;20892;-73
2022/09/07 04:55:33;;;;;;;17.13;15.73;;;17.50;99.90;;;;;;4957832;28;20441;-74
2022/09/07 04:58:03;;;;;;;17.20;15.87;;;17.50;99.90;;;;;;4958020;28;20435;-74
2022/09/07 05:00:31;;;;;;;16.43;15.17;;;17.50;99.90;;;;;;4958014;28;20836;-74
2022/09/07 05:02:59;;;;;;;17.70;16.00;;;17.40;99.90;;;;;;4958103;28;20533;-73
2022/09/07 05:05:28;;;;;;;17.20;15.90;;;17.40;99.90;;;;;;4957956;28;20556;-75
2022/09/07 05:07:56;;;;;;;17.30;15.80;;;17.40;99.90;;;;;;4956528;29;20549;-75
2022/09/07 05:10:24;;;;;;;18.00;16.50;;;17.40;99.90;;;;;;4957627;28;20517;-75
2022/09/07 05:12:52;;;;;;;18.20;16.80;;;17.40;99.90;;;;;;4956688;29;21073;-75
2022/09/07 05:15:22;;;;;;;19.10;17.53;;;17.40;99.90;;;;;;4956462;28;20921;-75
2022/09/07 05:17:50;;;;;;;18.70;17.20;;;17.30;99.90;;;;;;4956518;29;20799;-75
2022/09/07 05:20:19;;;;;;;17.57;16.37;;;17.40;99.90;;;;;;4957633;28;20566;-75
2022/09/07 05:22:48;;;;;;;20.57;18.73;;;17.30;99.90;;;;;;4956670;29;20442;-75
2022/09/07 05:25:16;;;;;;;19.27;17.70;;;17.30;99.90;;;;;;4956588;29;20565;-75
2022/09/07 05:27:44;;;;;;;20.43;18.93;;;17.30;99.90;;;;;;4957710;28;20525;-75
2022/09/07 05:30:14;;;;;;;22.30;20.03;;;17.30;99.90;;;;;;4956132;28;20908;-73
2022/09/07 05:33:06;;;;;;;19.80;18.20;;;17.30;99.90;;;;;;4955866;29;20443;-73
2022/09/07 05:35:35;;;;;;;19.57;17.93;;;17.30;99.90;;;;;;4956120;28;20869;-73
2022/09/07 05:38:03;;;;;;;19.50;18.07;;;17.20;99.90;;;;;;4957231;28;20439;-74
2022/09/07 05:40:32;;;;;;;18.70;17.30;;;17.20;99.90;;;;;;4956176;28;20445;-73
2022/09/07 05:43:08;;;;;;;21.47;19.83;;;17.20;99.90;;;;;;4957344;28;20756;-73
2022/09/07 05:45:36;;;;;;;19.00;17.43;;;17.20;99.90;;;;;;4957272;28;20533;-74
2022/09/07 05:48:06;;;;;;;20.00;18.50;;;17.20;99.90;;;;;;4955743;29;20433;-73
2022/09/07 05:50:35;;;;;;;20.97;19.37;;;17.20;99.90;;;;;;4956890;28;20848;-74
2022/09/07 05:53:03;;;;;;;17.87;16.47;;;17.20;99.90;;;;;;4957070;28;20445;-73
2022/09/07 05:55:32;;;;;;;21.37;19.67;;;17.20;99.90;;;;;;4955497;29;20958;-73
2022/09/07 05:58:00;;;;;;;19.70;18.10;;;17.20;99.90;;;;;;4955576;28;20428;-73
2022/09/07 06:00:28;;;;;;;20.67;19.00;;;17.20;99.90;;;;;;4956349;28;20462;-73
2022/09/07 06:02:56;;;;;;;21.10;19.40;;;17.20;99.90;;;;;;4957177;28;20421;-74
2022/09/07 06:05:26;;;;;;;20.50;18.87;;;17.20;99.90;;;;;;4956640;28;20466;-74
2022/09/07 06:07:54;;;;;;;21.20;19.63;;;17.20;99.90;;;;;;4956715;28;20447;-74
2022/09/07 06:10:22;;;;;;;20.20;18.70;;;17.20;99.90;;;;;;4955314;28;20467;-74
2022/09/07 06:13:11;;;;;;;21.70;19.87;;;17.20;99.90;;;;;;4956454;29;20546;-74
2022/09/07 06:15:39;;;;;;;23.80;21.93;;;17.20;99.90;;;;;;4955612;29;20873;-74
2022/09/07 06:18:07;;;;;;;22.10;20.47;;;17.20;99.90;;;;;;4956798;28;20509;-74
2022/09/07 06:20:38;;;;;;;20.70;19.00;;;17.20;99.90;;;;;;4956534;28;20501;-74
2022/09/07 06:23:07;;;;;;;21.63;19.87;;;17.10;99.90;;;;;;4956753;28;20417;-76
2022/09/07 06:25:35;;;;;;;21.90;20.10;;;17.10;99.90;;;;;;4955140;29;20528;-74
2022/09/07 06:28:03;;;;;;;21.80;20.00;;;17.10;99.90;;;;;;4956544;28;20464;-75
2022/09/07 06:30:32;;;;;;;21.60;19.80;;;17.10;99.90;;;;;;4956788;28;20858;-74
2022/09/07 06:33:01;;;;;;;22.43;20.60;;;17.10;99.90;;;;;;4955080;29;20516;-74
2022/09/07 06:35:29;;;;;;;21.30;19.47;;;17.10;99.90;;;;;;4956765;28;20441;-74
2022/09/07 06:37:59;;;;;;;21.83;20.07;;;17.10;99.90;;;;;;4955370;29;20467;-75
2022/09/07 06:40:27;;;;;;;22.17;20.43;;;17.10;99.90;;;;;;4956538;28;20527;-74
2022/09/07 06:42:55;;;;;;;21.37;19.53;;;17.20;99.90;;;;;;4956169;28;20513;-74
2022/09/07 06:45:24;;;;;;;20.17;18.47;;;17.20;99.90;;;;;;4956400;28;20506;-74
2022/09/07 06:47:54;;;;;;;20.13;18.60;;;17.20;99.90;;;;;;4955789;28;20984;-74
2022/09/07 06:50:22;;;;;;;22.97;21.27;;;17.20;99.90;;;;;;4956003;28;20441;-74
2022/09/07 06:52:50;;;;;;;21.40;19.70;;;17.20;99.90;;;;;;4956132;28;20474;-74
2022/09/07 06:55:45;;;;;;;21.37;19.60;;;17.30;99.90;;;;;;4954533;28;20421;-74
2022/09/07 06:58:13;;;;;;;23.03;21.20;;;17.30;99.90;;;;;;4955798;28;20462;-74
2022/09/07 07:00:41;;;;;;;22.87;21.07;;;17.40;99.90;;;;;;4954471;28;20469;-74
2022/09/07 07:03:09;;;;;;;23.00;21.10;;;17.40;99.90;;;;;;4956073;28;20428;-75
2022/09/07 07:05:37;;;;;;;24.10;22.20;;;17.40;99.90;;;;;;4955827;28;20474;-74
2022/09/07 07:08:06;;;;;;;24.13;22.23;;;17.50;99.90;;;;;;4956117;28;20526;-75
2022/09/07 07:10:38;;;;;;;24.73;22.77;;;17.50;99.90;;;;;;4956262;28;20549;-75
2022/09/07 07:13:07;;;;;;;27.77;25.50;;;17.60;99.90;;;;;;4955230;28;20427;-75
2022/09/07 07:15:35;;;;;;;25.67;23.40;;;17.70;99.90;;;;;;4955837;28;20444;-76
2022/09/07 07:18:04;;;;;;;22.20;20.60;;;17.80;99.90;;;;;;4955783;28;20529;-77
2022/09/07 07:20:48;;;;;;;23.93;22.03;;;17.90;99.90;;;;;;4954355;28;20994;-75
2022/09/07 07:23:16;;;;;;;24.97;22.80;;;18.00;99.90;;;;;;4955705;28;20920;-75
2022/09/07 07:25:44;;;;;;;24.73;22.73;;;18.10;99.90;;;;;;4956052;28;20551;-77
2022/09/07 07:28:14;;;;;;;23.80;21.60;;;18.10;99.90;;;;;;4955591;28;20431;-75
2022/09/07 07:31:05;;;;;;;23.47;21.73;;;18.20;99.90;;;;;;4955538;28;20494;-75
2022/09/07 07:33:38;;;;;;;23.37;21.47;;;18.30;99.90;;;;;;4955689;28;20502;-75
2022/09/07 07:36:12;;;;;;;22.40;20.67;;;18.30;99.90;;;;;;4955797;28;20451;-75
2022/09/07 07:38:41;;;;;;;23.07;21.43;;;18.40;99.90;;;;;;4955556;28;20426;-76
2022/09/07 07:41:28;;;;;;;23.23;21.30;;;18.40;99.90;;;;;;4955584;28;20466;-76
2022/09/07 07:44:18;;;;;;;24.73;22.30;;;18.50;99.90;;;;;;4955472;28;21028;-75
2022/09/07 07:46:48;;;;;;;23.63;21.50;;;18.50;99.90;;;;;;4955901;28;20965;-76
2022/09/07 07:49:16;;;;;;;21.33;19.70;;;18.60;99.90;;;;;;4955357;28;20550;-75
2022/09/07 07:51:44;;;;;;;23.80;22.10;;;18.60;99.90;;;;;;4954136;28;20467;-75
2022/09/07 07:54:35;;;;;;;24.03;22.03;;;18.70;99.90;;;;;;4955264;28;20470;-77
2022/09/07 07:57:06;;;;;;;22.70;20.90;;;18.80;99.90;;;;;;4954125;29;20446;-75
2022/09/07 07:59:36;;;;;;;24.47;22.57;;;18.90;99.90;;;;;;4955427;28;20466;-75
2022/09/07 08:02:05;;;;;;;22.93;21.23;;;19.00;99.90;;;;;;4953895;28;21045;-75
2022/09/07 08:04:34;;;;;;;23.30;21.50;;;19.10;99.90;;;;;;4953882;29;20864;-75
2022/09/07 08:07:03;;;;;;;23.43;21.60;;;19.20;99.90;;;;;;4954173;28;20474;-75
2022/09/07 08:09:39;;;;;;;22.77;20.77;;;19.20;99.90;;;;;;4955599;28;20453;-75
2022/09/07 08:12:08;;;;;;;24.33;21.80;;;19.30;99.90;;;;;;4955164;28;20867;-77
2022/09/07 08:14:39;;;;;;;25.13;23.13;;;19.40;99.90;;;;;;4955481;28;20510;-76
2022/09/07 08:17:09;;;;;;;24.57;22.70;;;19.50;99.90;;;;;;4955241;28;20518;-76
2022/09/07 08:19:37;;;;;;;24.70;22.90;;;19.60;99.90;;;;;;4953748;28;20446;-75
2022/09/07 08:22:07;;;;;;;24.73;22.83;;;19.60;99.90;;;;;;4955067;28;20442;-76
2022/09/07 08:24:35;;;;;;;22.90;21.20;;;19.80;99.90;;;;;;4958115;28;20450;-75
2022/09/07 08:27:04;;;;;;;22.47;20.80;;;19.90;99.90;;;;;;4958712;28;20470;-75
2022/09/07 08:29:32;;;;;;;23.87;22.07;;;20.00;99.90;;;;;;4957188;28;20497;-75
2022/09/07 08:32:05;;;;;;;22.30;20.50;;;20.00;99.90;;;;;;4957537;29;20467;-77
2022/09/07 08:34:36;;;;;;;22.10;20.40;;;20.20;99.90;;;;;;4957282;29;20427;-75
2022/09/07 08:37:04;;;;;;;23.27;21.27;;;20.20;99.90;;;;;;4959418;28;20454;-75
2022/09/07 08:39:32;;;;;;;23.30;21.40;;;20.30;99.90;;;;;;4958515;28;20438;-75
2022/09/07 08:42:20;;;;;;;22.70;20.83;;;20.40;99.90;;;;;;4958898;28;20446;-75
2022/09/07 08:44:54;;;;;;;22.47;20.80;;;20.50;99.90;;;;;;4957120;29;20492;-75
2022/09/07 08:47:35;;;;;;;21.47;19.87;;;20.60;99.90;;;;;;4958044;28;20510;-75
2022/09/07 08:50:07;;;;;;;35.40;32.43;;;20.70;99.90;;;;;;4958057;28;20988;-75
2022/09/07 08:52:42;;;;;;;22.33;20.33;;;20.80;99.90;;;;;;4956902;28;20940;-75
2022/09/07 08:55:15;;;;;;;22.17;20.13;;;20.90;99.90;;;;;;4956836;28;20484;-75
2022/09/07 08:57:49;;;;;;;22.00;20.10;;;21.00;99.90;;;;;;4958252;28;20423;-76
2022/09/07 09:00:19;;;;;;;21.03;19.30;;;21.10;99.90;;;;;;4956721;28;20473;-76
2022/09/07 09:02:48;;;;;;;20.93;18.90;;;21.10;99.90;;;;;;4956614;28;20451;-76
2022/09/07 09:05:42;;;;;;;22.77;20.73;;;21.20;99.90;;;;;;4956532;28;20509;-76
2022/09/07 09:08:25;;;;;;;19.73;18.23;;;21.30;99.90;;;;;;4956473;29;20458;-76
2022/09/07 09:11:01;;;;;;;21.03;19.27;;;21.30;99.90;;;;;;4956447;28;20466;-75
2022/09/07 09:13:42;;;;;;;19.43;17.90;;;21.40;99.90;;;;;;4956502;29;20446;-76
2022/09/07 09:16:15;;;;;;;16.40;15.10;;;21.50;99.90;;;;;;4958032;28;20419;-76
2022/09/07 09:19:01;;;;;;;15.70;14.37;;;21.60;99.90;;;;;;4957890;28;20867;-76
2022/09/07 09:21:29;;;;;;;16.40;15.10;;;21.70;99.90;;;;;;4957903;28;20473;-76
2022/09/07 09:24:05;;;;;;;17.53;16.30;;;21.80;99.90;;;;;;4956275;29;20906;-76
2022/09/07 09:26:34;;;;;;;20.40;18.67;;;21.90;99.90;;;;;;4957756;28;20492;-76
2022/09/07 09:29:13;;;;;;;17.37;16.17;;;22.00;99.90;;;;;;4956203;29;20502;-77
2022/09/07 09:31:41;;;;;;;16.60;15.30;;;22.10;99.90;;;;;;4956038;28;20888;-76
2022/09/07 09:34:14;;;;;;;17.37;15.87;;;22.20;99.90;;;;;;4956348;29;21044;-76
2022/09/07 09:36:46;;;;;;;14.30;13.30;;;22.30;99.90;;;;;;4955430;28;20435;-76
2022/09/07 09:39:32;;;;;;;14.43;13.20;;;22.30;99.90;;;;;;4956873;28;20443;-76
2022/09/07 09:42:14;;;;;;;15.50;14.10;;;22.40;99.90;;;;;;4956033;29;20821;-76
2022/09/07 09:44:44;;;;;;;14.33;13.23;;;22.50;99.90;;;;;;4957353;28;20501;-76
2022/09/07 09:47:31;;;;;;;13.97;12.77;;;22.60;99.90;;;;;;4955590;28;20477;-76
2022/09/07 09:50:04;;;;;;;14.10;12.90;;;22.80;99.90;;;;;;4957072;28;20514;-76
2022/09/07 09:52:36;;;;;;;13.70;12.50;;;22.90;99.90;;;;;;4955900;28;20482;-76
2022/09/07 09:55:27;;;;;;;13.40;12.30;;;22.90;99.90;;;;;;4957293;28;20849;-76
2022/09/07 09:58:04;;;;;;;13.30;12.30;;;23.00;99.90;;;;;;4956849;28;20457;-76
2022/09/07 10:01:00;;;;;;;14.20;13.10;;;23.10;99.90;;;;;;4956756;28;20496;-76
2022/09/07 10:03:50;;;;;;;13.10;12.00;;;23.10;99.90;;;;;;4955628;28;20469;-76
2022/09/07 10:06:22;;;;;;;12.90;11.70;;;23.20;99.90;;;;;;4957296;28;20793;-76
2022/09/07 10:08:57;;;;;;;11.50;10.47;;;23.20;99.90;;;;;;4957050;28;20470;-76
2022/09/07 10:11:43;;;;;;;11.63;10.73;;;23.20;99.90;;;;;;4955472;28;20508;-76
2022/09/07 10:14:34;;;;;;;11.00;10.00;;;23.30;99.90;;;;;;4956984;28;20458;-76
2022/09/07 10:17:12;;;;;;;12.10;10.90;;;23.30;99.90;;;;;;4955141;29;20498;-76
2022/09/07 10:19:42;;;;;;;9.90;9.10;;;23.30;99.90;;;;;;4956884;28;20458;-76
2022/09/07 10:22:32;;;;;;;10.07;9.07;;;23.40;99.90;;;;;;4956670;29;20956;-77
2022/09/07 10:25:02;;;;;;;6.93;6.43;;;23.50;99.90;;;;;;4956866;28;20428;-76
2022/09/07 10:27:36;;;;;;;6.10;5.60;;;23.50;99.90;;;;;;4956872;28;20506;-75
2022/09/07 10:30:13;;;;;;;5.80;5.30;;;23.60;99.90;;;;;;4956924;28;20513;-76
2022/09/07 10:33:01;;;;;;;11.63;5.60;;;23.70;99.90;;;;;;4955223;29;20450;-75
2022/09/07 10:35:34;;;;;;;7.13;6.43;;;23.70;99.90;;;;;;4957053;28;20422;-75
2022/09/07 10:38:13;;;;;;;5.80;5.20;;;23.80;99.90;;;;;;4956368;28;20423;-75
2022/09/07 10:40:44;;;;;;;5.50;5.00;;;23.80;99.90;;;;;;4956639;28;20454;-75
2022/09/07 10:43:22;;;;;;;5.33;4.93;;;23.90;99.90;;;;;;4957959;28;20431;-78
2022/09/07 10:46:06;;;;;;;5.33;4.83;;;23.90;99.90;;;;;;4956300;29;20442;-78
2022/09/07 10:48:43;;;;;;;5.50;5.00;;;24.00;99.90;;;;;;4957940;28;20486;-78
2022/09/07 10:51:16;;;;;;;5.73;5.20;;;24.00;99.90;;;;;;4956737;28;20557;-78
2022/09/07 10:53:55;;;;;;;5.67;5.17;;;24.00;99.90;;;;;;4955717;28;20443;-78
2022/09/07 10:56:55;;;;;;;4.60;4.20;;;24.10;99.90;;;;;;4957251;29;20446;-78
2022/09/07 10:59:37;;;;;;;5.80;5.30;;;24.10;99.90;;;;;;4957563;28;20455;-78
2022/09/07 11:02:34;;;;;;;6.00;4.30;;;24.20;99.90;;;;;;4957519;28;20450;-78
2022/09/07 11:05:13;;;;;;;4.50;4.10;;;24.30;99.90;;;;;;4957206;28;20925;-78
2022/09/07 11:07:57;;;;;;;4.77;4.23;;;24.50;99.90;;;;;;4957915;28;20466;-78
2022/09/07 11:10:35;;;;;;;4.60;4.20;;;24.60;99.90;;;;;;4957541;28;20462;-78
2022/09/07 11:13:06;;;;;;;5.03;4.53;;;24.60;99.80;;;;;;4957705;28;20521;-78
2022/09/07 11:15:39;;;;;;;4.80;4.40;;;24.70;99.70;;;;;;4956017;28;20442;-78
2022/09/07 11:18:15;;;;;;;4.30;4.00;;;24.70;99.50;;;;;;4955822;28;20451;-78
2022/09/07 11:20:53;;;;;;;6.27;5.17;;;24.80;99.20;;;;;;4955921;28;20560;-78
2022/09/07 11:23:28;;;;;;;4.83;4.43;;;24.90;99.10;;;;;;4957201;28;20443;-78
2022/09/07 11:26:06;;;;;;;4.27;3.87;;;25.00;98.90;;;;;;4957767;29;20473;-78
2022/09/07 11:28:44;;;;;;;4.67;4.20;;;25.00;98.70;;;;;;4956263;29;20506;-78
2022/09/07 11:31:19;;;;;;;4.23;3.83;;;24.90;98.50;;;;;;4956443;28;20466;-78
2022/09/07 11:33:57;;;;;;;5.30;4.80;;;24.90;98.30;;;;;;4958039;29;20435;-78
2022/09/07 11:36:50;;;;;;;3.77;3.47;;;24.90;98.30;;;;;;4956088;28;20555;-79
2022/09/07 11:39:25;;;;;;;4.20;3.90;;;24.90;98.20;;;;;;4956329;28;20458;-78
2022/09/07 11:42:01;;;;;;;3.43;3.13;;;24.90;98.10;;;;;;4956099;28;20438;-78
2022/09/07 11:44:53;;;;;;;3.57;3.27;;;24.90;98.00;;;;;;4955906;28;20538;-78
2022/09/07 11:47:27;;;;;;;4.40;3.13;;;24.90;97.90;;;;;;4956874;29;20829;-80
2022/09/07 11:49:56;;;;;;;3.80;3.40;;;24.90;97.70;;;;;;4956751;28;20462;-78
2022/09/07 11:52:34;;;;;;;4.20;3.23;;;24.90;97.70;;;;;;4956420;29;20517;-78
2022/09/07 11:55:07;;;;;;;4.10;3.80;;;24.90;97.60;;;;;;4958317;28;20901;-78
2022/09/07 11:57:59;;;;;;;4.53;3.37;;;24.90;97.50;;;;;;4957462;28;20918;-78
2022/09/07 12:00:37;;;;;;;3.97;3.57;;;24.90;97.40;;;;;;4961503;28;20454;-79
2022/09/07 12:03:30;;;;;;;4.87;4.40;;;24.90;97.30;;;;;;4962216;28;20785;-81
2022/09/07 12:06:19;;;;;;;4.63;4.23;;;24.80;97.20;;;;;;4962949;28;20438;-80
2022/09/07 12:09:03;;;;;;;4.20;3.87;;;24.80;97.20;;;;;;4961377;28;21000;-79
2022/09/07 12:11:50;;;;;;;4.33;3.57;;;24.80;97.30;;;;;;4960879;28;20483;-79
2022/09/07 12:14:32;;;;;;;5.53;3.80;;;24.80;97.40;;;;;;4961305;28;20434;-80
2022/09/07 12:17:20;;;;;;;4.20;3.83;;;24.90;97.40;;;;;;4961026;28;20454;-79
2022/09/07 12:20:09;;;;;;;5.47;4.97;;;25.00;97.30;;;;;;4963129;28;20541;-79
2022/09/07 12:22:54;;;;;;;8.67;4.73;;;25.00;97.20;;;;;;4961506;28;20454;-80
2022/09/07 12:25:24;;;;;;;5.33;4.80;;;25.00;97.20;;;;;;4960458;28;20438;-79
2022/09/07 12:27:52;;;;;;;5.80;5.40;;;25.00;97.50;;;;;;4961026;28;20438;-80
2022/09/07 12:30:55;;;;;;;6.07;5.47;;;25.00;97.20;;;;;;4959894;28;20466;-79
2022/09/07 12:33:32;;;;;;;5.80;5.07;;;25.00;97.10;;;;;;4959564;28;20434;-79
2022/09/07 12:36:01;;;;;;;6.60;5.37;;;25.00;97.10;;;;;;4959046;29;20446;-79
2022/09/07 12:39:13;;;;;;;5.77;5.17;;;24.90;97.10;;;;;;4959165;28;20787;-79
2022/09/07 12:41:50;;;;;;;5.80;5.20;;;24.90;96.90;;;;;;4960206;28;20568;-78
2022/09/07 12:44:39;;;;;;;5.60;5.20;;;24.90;97.00;;;;;;4959865;28;20464;-78
2022/09/07 12:47:26;;;;;;;5.40;4.90;;;24.80;96.90;;;;;;4958064;28;20509;-78
2022/09/07 12:50:18;;;;;;;5.47;4.97;;;24.80;96.90;;;;;;4960067;28;20482;-79
2022/09/07 12:52:53;;;;;;;8.33;6.00;;;24.70;96.90;;;;;;4959071;28;20454;-78
2022/09/07 12:55:40;;;;;;;6.80;4.90;;;24.70;97.00;;;;;;4958371;29;20442;-78
2022/09/07 12:58:40;;;;;;;6.23;5.63;;;24.80;97.00;;;;;;4959521;28;20446;-78
2022/09/07 13:01:22;;;;;;;7.50;6.83;;;24.80;97.30;;;;;;4958405;28;20470;-78
2022/09/07 13:04:18;;;;;;;6.90;6.10;;;24.80;96.90;;;;;;4959847;28;20463;-78
2022/09/07 13:07:08;;;;;;;7.20;6.57;;;24.90;97.00;;;;;;4958609;28;20468;-78